This is the latest recevied weather packets stored in our database for station/object EA1AHP-1. If no packets are shown the sender has not sent any weather packets the latest 10 day(s).
| Time | Temp. | Humidity | Pressure | Rain* | Wind** | Luminosity | Snow |
|---|---|---|---|---|---|---|---|
| 1777717611 | 16.67° C | 13% | 926 hPa | 0 mm | - | - | - |
| 1777716710 | 16.67° C | 14% | 926 hPa | 0 mm | - | - | - |
| 1777715810 | 16.67° C | 16% | 926 hPa | 0 mm | - | - | - |
| 1777714910 | 16.11° C | 16% | 926 hPa | 0 mm | - | - | - |
| 1777714011 | 16.11° C | 19% | 926 hPa | 0 mm | - | - | - |
| 1777713110 | 15.56° C | 22% | 930 hPa | 0 mm | - | - | - |
| 1777712211 | 15° C | 19% | 926 hPa | 0 mm | - | - | - |
| 1777711310 | 15° C | 19% | 929 hPa | 0 mm | - | - | - |
| 1777710410 | 14.44° C | 17% | 926 hPa | 0 mm | - | - | - |
| 1777709511 | 15° C | 14% | 926 hPa | 0 mm | - | - | - |
| 1777708610 | 16.11° C | 14% | 926 hPa | 0 mm | - | - | - |
| 1777707711 | 16.11° C | 14% | 926 hPa | 0 mm | - | - | - |
| 1777706810 | 16.11° C | 14% | 925 hPa | 0 mm | - | - | - |
| 1777705911 | 16.11° C | 14% | 925 hPa | 0 mm | - | - | - |
| 1777705010 | 15.56° C | 14% | 925 hPa | 0 mm | - | - | - |
| 1777704111 | 15.56° C | 14% | 925 hPa | 0 mm | - | - | - |
| 1777703211 | 15.56° C | 14% | 925 hPa | 0 mm | - | - | - |
| 1777702311 | 15.56° C | 14% | 925 hPa | 0 mm | - | - | - |
| 1777701411 | 15.56° C | 14% | 925 hPa | 0 mm | - | - | - |
| 1777700511 | 15.56° C | 14% | 925 hPa | 0 mm | - | - | - |
| 1777699611 | 15.56° C | 14% | 925 hPa | 0 mm | - | - | - |
| 1777698711 | 15.56° C | 14% | 925 hPa | 0 mm | - | - | - |
| 1777697811 | 15.56° C | 14% | 925 hPa | 0 mm | - | - | - |
| 1777696910 | 16.11° C | 14% | 925 hPa | 0 mm | - | - | - |
| 1777696011 | 16.11° C | 14% | 926 hPa | 0 mm | - | - | - |
* Rain latest hour (hover to see other rain measurements)
** Current wind speed in m/s (hover to see current wind gust speed)